Benwood, Indiana
Current Conditions -  °F | °C
As of 7:53 AM on Saturday 25 Oct 2014 (Local Time) from KHUF Reporting Station
Clear Clear  
Wind Chill: 52°   Ceiling: Unl
Heat Index: 52°   Visibility: 9mi
Dew Point: 50°   Wind: 3mph
Humidity: 93%   Direction: 200°SSW
Pressure: 29.98"   Gusts: NA
Location:  39.5158°N, 87.1262°W
Report Text: KHUF 251153Z AUTO 20003KT 9SM CLR 11/10 A2998 RMK AO2 SLP154 T01110100 10150 20089 53007
Loading
Personal Weather Stations






























Interactive Weather Map
Tropical Storm Tracking
New forecast layout! Learn more

10-Day Weather Forecast

Advertisements
Track Severe Weather on mobile